Time;durP1;ratioP1;P1;durP2;ratioP2;P2;SDS_P1;SDS_P2;PMS_P1;PMS_P2;Temp;Humidity;BMP_temperature;BMP_pressure;BME280_temperature;BME280_humidity;BME280_pressure;Samples;Min_cycle;Max_cycle;Signal;HPM_P1;HPM_P2
2022/06/07 00:00:28;;;;;;;6.38;3.25;;;;;;;;;;5060317;28;21218;-69
2022/06/07 00:02:53;;;;;;;4.45;3.15;;;;;;;;;;5065369;28;20017;-68
2022/06/07 00:05:18;;;;;;;5.15;3.20;;;;;;;;;;5066438;28;20028;-69
2022/06/07 00:07:44;;;;;;;4.68;3.40;;;;;;;;;;5067252;28;20055;-68
2022/06/07 00:10:09;;;;;;;5.90;3.05;;;;;;;;;;5067295;28;20043;-69
2022/06/07 00:12:35;;;;;;;6.60;3.20;;;;;;;;;;5066399;28;20433;-69
2022/06/07 00:15:01;;;;;;;11.18;3.40;;;;;;;;;;5064010;28;20021;-68
2022/06/07 00:17:27;;;;;;;6.47;3.30;;;;;;;;;;5063504;28;20421;-68
2022/06/07 00:19:52;;;;;;;6.72;3.13;;;;;;;;;;5067016;28;20067;-69
2022/06/07 00:22:18;;;;;;;9.05;3.10;;;;;;;;;;5065214;28;20033;-69
2022/06/07 00:24:44;;;;;;;5.03;3.40;;;;;;;;;;5065454;28;20182;-69
2022/06/07 00:27:10;;;;;;;5.97;3.60;;;;;;;;;;5066177;28;20115;-68
2022/06/07 00:29:37;;;;;;;5.55;3.05;;;;;;;;;;5066722;28;20032;-68
2022/06/07 00:32:05;;;;;;;7.25;3.30;;;;;;;;;;5065885;28;20067;-68
2022/06/07 00:34:30;;;;;;;7.45;3.60;;;;;;;;;;5063620;28;20362;-69
2022/06/07 00:36:57;;;;;;;5.70;3.17;;;;;;;;;;5066826;28;20048;-69
2022/06/07 00:39:22;;;;;;;6.53;3.30;;;;;;;;;;5064643;28;20024;-69
2022/06/07 00:41:48;;;;;;;6.90;3.28;;;;;;;;;;5068830;28;20021;-69
2022/06/07 00:44:28;;;;;;;4.75;3.08;;;;;;;;;;5065072;28;20028;-68
2022/06/07 00:47:05;;;;;;;3.70;3.10;;;;;;;;;;5058541;28;20036;-69
2022/06/07 00:49:36;;;;;;;6.95;3.50;;;;;;;;;;5063142;28;20036;-71
2022/06/07 00:52:03;;;;;;;6.10;3.15;;;;;;;;;;5063408;28;20526;-69
2022/06/07 00:54:31;;;;;;;5.60;3.22;;;;;;;;;;5067233;28;20036;-69
2022/06/07 00:56:56;;;;;;;6.65;3.88;;;;;;;;;;5069400;28;20021;-69
2022/06/07 00:59:23;;;;;;;7.72;3.38;;;;;;;;;;5066166;28;20094;-69
2022/06/07 01:01:50;;;;;;;4.55;3.30;;;;;;;;;;5058832;28;20032;-69
2022/06/07 01:04:16;;;;;;;4.82;3.47;;;;;;;;;;5068036;28;20032;-69
2022/06/07 01:12:10;;;;;;;5.50;3.53;;;;;;;;;;5065505;28;20035;-69
2022/06/07 01:14:36;;;;;;;7.35;3.70;;;;;;;;;;5068278;28;20123;-69
2022/06/07 01:17:01;;;;;;;8.05;3.88;;;;;;;;;;5064204;28;20131;-69
2022/06/07 01:19:27;;;;;;;8.38;3.72;;;;;;;;;;5066600;28;20032;-69
2022/06/07 01:21:52;;;;;;;8.18;3.97;;;;;;;;;;5065440;28;20528;-68
2022/06/07 01:24:18;;;;;;;5.40;3.80;;;;;;;;;;5059175;28;20052;-68
2022/06/07 01:26:44;;;;;;;7.18;3.72;;;;;;;;;;5064546;28;20029;-69
2022/06/07 01:29:11;;;;;;;6.25;3.88;;;;;;;;;;5064405;28;20489;-69
2022/06/07 01:31:37;;;;;;;8.38;3.88;;;;;;;;;;5066264;28;20033;-69
2022/06/07 01:34:03;;;;;;;7.28;3.90;;;;;;;;;;5061513;28;20086;-69
2022/06/07 01:36:30;;;;;;;6.00;3.40;;;;;;;;;;5065614;28;20063;-69
2022/06/07 01:41:55;;;;;;;12.27;4.00;;;;;;;;;;5067842;28;20043;-69
2022/06/07 01:44:26;;;;;;;10.00;3.50;;;;;;;;;;5067987;28;20545;-69
2022/06/07 01:46:53;;;;;;;7.70;4.00;;;;;;;;;;5059552;28;20055;-69
2022/06/07 01:49:19;;;;;;;6.97;4.10;;;;;;;;;;5054344;28;20123;-69
2022/06/07 01:51:45;;;;;;;7.45;3.95;;;;;;;;;;5065019;28;20151;-68
2022/06/07 01:54:13;;;;;;;8.88;3.85;;;;;;;;;;5060777;28;20115;-68
2022/06/07 01:56:38;;;;;;;10.68;4.00;;;;;;;;;;5055424;28;20024;-69
2022/06/07 01:59:05;;;;;;;8.48;3.67;;;;;;;;;;5066349;28;20616;-68
2022/06/07 02:01:31;;;;;;;10.32;3.95;;;;;;;;;;5063740;28;20147;-69
2022/06/07 02:03:56;;;;;;;6.30;3.83;;;;;;;;;;5065272;28;20112;-69
2022/06/07 02:06:22;;;;;;;5.05;3.40;;;;;;;;;;5064074;28;20035;-69
2022/06/07 02:08:48;;;;;;;6.95;3.70;;;;;;;;;;5065779;28;20453;-69
2022/06/07 02:11:20;;;;;;;4.63;3.30;;;;;;;;;;5066949;28;20085;-69
2022/06/07 02:13:46;;;;;;;8.25;3.42;;;;;;;;;;5073260;28;20025;-68
2022/06/07 02:16:11;;;;;;;6.95;3.50;;;;;;;;;;5063925;28;20040;-68
2022/06/07 02:18:38;;;;;;;7.15;3.35;;;;;;;;;;5066019;28;20528;-68
2022/06/07 02:21:05;;;;;;;5.47;3.20;;;;;;;;;;5066308;28;20045;-69
2022/06/07 02:23:33;;;;;;;8.07;3.20;;;;;;;;;;5064176;28;20053;-69
2022/06/07 02:26:05;;;;;;;4.97;3.53;;;;;;;;;;5066517;28;20502;-69
2022/06/07 02:28:37;;;;;;;7.65;3.28;;;;;;;;;;5063141;28;20040;-69
2022/06/07 02:31:05;;;;;;;4.93;3.33;;;;;;;;;;5060147;28;20056;-69
2022/06/07 02:33:31;;;;;;;4.00;3.05;;;;;;;;;;5069269;28;20512;-69
2022/06/07 02:35:57;;;;;;;5.93;3.00;;;;;;;;;;5068211;28;20468;-68
2022/06/07 02:38:22;;;;;;;4.47;3.20;;;;;;;;;;5068042;28;20036;-69
2022/06/07 02:40:50;;;;;;;4.47;3.33;;;;;;;;;;5069431;28;20037;-68
2022/06/07 02:43:16;;;;;;;5.07;3.10;;;;;;;;;;5071751;28;20044;-69
2022/06/07 02:45:41;;;;;;;8.63;3.72;;;;;;;;;;5066904;28;20150;-69
2022/06/07 02:48:07;;;;;;;5.38;3.47;;;;;;;;;;5070450;28;20070;-68
2022/06/07 02:50:33;;;;;;;5.05;3.35;;;;;;;;;;5069015;28;20078;-69
2022/06/07 02:52:59;;;;;;;7.82;3.45;;;;;;;;;;5067321;28;20108;-69
2022/06/07 02:55:24;;;;;;;5.38;3.72;;;;;;;;;;5070641;28;20063;-69
2022/06/07 02:57:50;;;;;;;6.55;3.45;;;;;;;;;;5068953;28;20040;-68
2022/06/07 03:00:16;;;;;;;6.07;3.25;;;;;;;;;;5068756;28;20099;-69
2022/06/07 03:02:41;;;;;;;6.68;3.25;;;;;;;;;;5064934;28;20063;-68
2022/06/07 03:05:10;;;;;;;4.43;3.20;;;;;;;;;;5069611;28;20033;-69
2022/06/07 03:07:36;;;;;;;9.35;3.88;;;;;;;;;;5067237;28;20040;-69
2022/06/07 03:10:01;;;;;;;6.38;3.78;;;;;;;;;;5067903;28;20048;-68
2022/06/07 03:12:27;;;;;;;4.53;3.40;;;;;;;;;;5069492;28;20131;-69
2022/06/07 03:14:52;;;;;;;5.82;3.55;;;;;;;;;;5066264;28;20052;-69
2022/06/07 03:17:17;;;;;;;6.97;4.50;;;;;;;;;;5072585;28;20119;-68
2022/06/07 03:19:43;;;;;;;6.35;3.60;;;;;;;;;;5063940;28;20037;-69
2022/06/07 03:22:09;;;;;;;7.22;4.10;;;;;;;;;;5066554;28;20051;-69
2022/06/07 03:24:35;;;;;;;7.82;4.22;;;;;;;;;;5068917;28;20029;-68
2022/06/07 03:27:01;;;;;;;5.18;3.53;;;;;;;;;;5066704;28;20040;-69
2022/06/07 03:29:27;;;;;;;6.80;4.22;;;;;;;;;;5060800;28;20082;-69
2022/06/07 03:31:52;;;;;;;6.93;3.67;;;;;;;;;;5073873;28;20132;-68
2022/06/07 03:34:18;;;;;;;6.25;3.78;;;;;;;;;;5069561;28;20116;-69
2022/06/07 03:36:43;;;;;;;7.22;3.90;;;;;;;;;;5064915;28;20093;-69
2022/06/07 03:39:09;;;;;;;9.52;4.20;;;;;;;;;;5070686;28;20489;-68
2022/06/07 03:41:35;;;;;;;6.82;3.55;;;;;;;;;;5074753;28;20051;-69
2022/06/07 03:44:02;;;;;;;5.72;3.83;;;;;;;;;;5070704;28;20028;-68
2022/06/07 03:46:29;;;;;;;7.32;3.80;;;;;;;;;;5071494;28;20044;-69
2022/06/07 03:48:55;;;;;;;7.53;3.78;;;;;;;;;;5065868;28;20056;-68
2022/06/07 03:51:24;;;;;;;5.97;3.53;;;;;;;;;;5067686;28;20021;-69
2022/06/07 03:53:51;;;;;;;5.78;3.85;;;;;;;;;;5065905;28;20040;-69
2022/06/07 03:56:17;;;;;;;6.68;3.60;;;;;;;;;;5068269;28;20037;-69
2022/06/07 03:58:43;;;;;;;7.55;3.83;;;;;;;;;;5068377;28;20032;-69
2022/06/07 04:01:15;;;;;;;5.80;3.80;;;;;;;;;;5067167;28;20391;-68
2022/06/07 04:03:45;;;;;;;8.65;3.80;;;;;;;;;;5067297;28;20041;-69
2022/06/07 04:06:25;;;;;;;9.20;4.05;;;;;;;;;;5068383;28;20063;-69
2022/06/07 04:08:51;;;;;;;6.05;3.80;;;;;;;;;;5060075;28;20028;-69
2022/06/07 04:11:20;;;;;;;5.85;3.75;;;;;;;;;;5064575;28;20043;-69
2022/06/07 04:13:47;;;;;;;5.80;3.60;;;;;;;;;;5067555;28;20421;-69
2022/06/07 04:16:15;;;;;;;6.55;3.60;;;;;;;;;;5058229;28;20052;-68
2022/06/07 04:18:42;;;;;;;9.30;4.10;;;;;;;;;;5069334;28;20036;-69
2022/06/07 04:21:07;;;;;;;8.05;3.95;;;;;;;;;;5067057;28;20041;-69
2022/06/07 04:23:33;;;;;;;7.65;4.05;;;;;;;;;;5066014;28;20131;-69
2022/06/07 04:26:19;;;;;;;9.02;3.88;;;;;;;;;;5077985;28;20037;-69
2022/06/07 04:28:45;;;;;;;6.72;4.30;;;;;;;;;;5083208;28;20586;-69
2022/06/07 04:31:20;;;;;;;6.28;3.47;;;;;;;;;;5087258;28;20040;-69
2022/06/07 04:33:46;;;;;;;6.68;3.33;;;;;;;;;;5084942;28;20147;-69
2022/06/07 04:36:15;;;;;;;4.65;3.00;;;;;;;;;;5087259;28;20036;-68
2022/06/07 04:38:41;;;;;;;5.65;3.25;;;;;;;;;;5083631;28;20042;-69
2022/06/07 04:41:11;;;;;;;6.93;3.42;;;;;;;;;;5087724;28;20032;-69
2022/06/07 04:43:37;;;;;;;4.13;3.05;;;;;;;;;;5082903;28;20074;-69
2022/06/07 04:46:16;;;;;;;6.22;3.13;;;;;;;;;;5088849;28;20040;-69
2022/06/07 04:48:43;;;;;;;6.43;3.42;;;;;;;;;;5087297;28;20618;-69
2022/06/07 04:51:11;;;;;;;7.90;3.50;;;;;;;;;;5083288;28;20135;-69
2022/06/07 04:53:36;;;;;;;8.35;3.40;;;;;;;;;;5083001;28;20012;-69
2022/06/07 04:56:15;;;;;;;4.53;3.28;;;;;;;;;;5086622;28;20024;-69
2022/06/07 04:58:40;;;;;;;6.07;3.88;;;;;;;;;;5086929;28;20075;-69
2022/06/07 05:01:10;;;;;;;8.95;4.10;;;;;;;;;;5082913;28;20109;-69
2022/06/07 05:03:35;;;;;;;7.93;4.32;;;;;;;;;;5087377;28;20043;-69
2022/06/07 05:06:00;;;;;;;8.52;4.32;;;;;;;;;;5087236;28;20031;-69
2022/06/07 05:08:26;;;;;;;6.18;3.80;;;;;;;;;;5087140;28;20032;-71
2022/06/07 05:10:53;;;;;;;7.45;3.03;;;;;;;;;;5084293;28;20039;-68
2022/06/07 05:13:19;;;;;;;8.73;3.60;;;;;;;;;;5086530;28;20505;-68
2022/06/07 05:15:52;;;;;;;6.70;3.30;;;;;;;;;;5074953;28;20051;-68
2022/06/07 05:18:18;;;;;;;6.13;3.00;;;;;;;;;;5081560;28;20031;-68
2022/06/07 05:20:44;;;;;;;6.40;3.25;;;;;;;;;;5083547;28;20040;-68
2022/06/07 05:23:09;;;;;;;8.75;3.42;;;;;;;;;;5086306;28;20631;-69
2022/06/07 05:25:35;;;;;;;7.72;3.50;;;;;;;;;;5083795;28;20040;-69
2022/06/07 05:28:00;;;;;;;8.85;3.40;;;;;;;;;;5085758;28;20043;-69
2022/06/07 05:30:25;;;;;;;11.90;3.33;;;;;;;;;;5077832;28;20032;-69
2022/06/07 05:32:51;;;;;;;5.22;3.38;;;;;;;;;;5087670;28;20032;-69
2022/06/07 05:35:16;;;;;;;7.53;3.33;;;;;;;;;;5082777;28;20040;-69
2022/06/07 05:37:42;;;;;;;4.93;3.30;;;;;;;;;;5082370;28;20617;-68
2022/06/07 05:40:08;;;;;;;6.68;3.00;;;;;;;;;;5085622;28;20063;-69
2022/06/07 05:42:33;;;;;;;6.53;3.55;;;;;;;;;;5083778;28;20093;-69
2022/06/07 05:44:59;;;;;;;4.13;3.20;;;;;;;;;;5083254;28;20024;-69
2022/06/07 05:47:25;;;;;;;7.70;3.40;;;;;;;;;;5084509;28;20038;-69
2022/06/07 05:49:50;;;;;;;7.40;3.30;;;;;;;;;;5083354;28;20043;-69
2022/06/07 05:52:15;;;;;;;5.72;3.03;;;;;;;;;;5080287;28;20036;-69
2022/06/07 05:54:41;;;;;;;8.55;3.28;;;;;;;;;;5075728;28;21193;-68
2022/06/07 05:57:07;;;;;;;7.78;3.67;;;;;;;;;;5084223;28;20485;-69
2022/06/07 05:59:33;;;;;;;7.18;3.38;;;;;;;;;;5081087;28;20035;-68
2022/06/07 06:01:59;;;;;;;5.30;3.22;;;;;;;;;;5081420;28;20036;-69
2022/06/07 06:04:25;;;;;;;5.88;2.95;;;;;;;;;;5078794;28;20455;-68
2022/06/07 06:06:53;;;;;;;5.97;3.33;;;;;;;;;;5078649;28;20071;-68
2022/06/07 06:12:02;;;;;;;;;;;;;;;;;;5077584;28;20057;-68
2022/06/07 06:14:27;;;;;;;5.22;3.00;;;;;;;;;;5073393;28;19920;-68
2022/06/07 06:16:53;;;;;;;6.03;3.30;;;;;;;;;;5072353;28;20070;-68
2022/06/07 06:19:19;;;;;;;6.88;3.22;;;;;;;;;;5069773;28;20078;-68
2022/06/07 06:21:45;;;;;;;7.53;3.38;;;;;;;;;;5071766;28;20048;-68
2022/06/07 06:24:11;;;;;;;6.25;3.17;;;;;;;;;;5072765;28;20030;-68
2022/06/07 06:26:38;;;;;;;6.65;2.80;;;;;;;;;;5073914;28;20058;-69
2022/06/07 06:29:04;;;;;;;7.32;2.92;;;;;;;;;;5079964;28;20036;-68
2022/06/07 06:31:29;;;;;;;7.05;3.10;;;;;;;;;;5082835;28;20527;-68
2022/06/07 06:33:55;;;;;;;7.13;2.85;;;;;;;;;;5079571;28;20074;-68
2022/06/07 06:36:24;;;;;;;6.38;2.75;;;;;;;;;;5079594;28;20135;-68
2022/06/07 06:38:49;;;;;;;5.88;3.03;;;;;;;;;;5078481;28;20028;-69
2022/06/07 06:41:21;;;;;;;8.73;4.45;;;;;;;;;;5077818;28;20054;-69
2022/06/07 06:43:47;;;;;;;8.45;5.32;;;;;;;;;;5080124;28;20032;-70
2022/06/07 06:46:26;;;;;;;13.73;4.72;;;;;;;;;;5078805;28;20074;-70
2022/06/07 06:48:52;;;;;;;6.97;4.00;;;;;;;;;;5077663;28;20111;-70
2022/06/07 06:51:20;;;;;;;5.90;3.67;;;;;;;;;;5075752;28;20016;-70
2022/06/07 06:53:46;;;;;;;7.65;4.35;;;;;;;;;;5078911;28;20032;-71
2022/06/07 06:56:13;;;;;;;7.80;4.13;;;;;;;;;;5070023;28;20031;-70
2022/06/07 06:58:39;;;;;;;8.60;5.20;;;;;;;;;;5079492;28;20043;-70
2022/06/07 07:01:08;;;;;;;10.68;5.20;;;;;;;;;;5078010;28;20039;-70
2022/06/07 07:03:34;;;;;;;8.70;5.50;;;;;;;;;;5081949;28;20489;-71
2022/06/07 07:06:05;;;;;;;9.93;4.95;;;;;;;;;;5082345;28;20024;-72
2022/06/07 07:08:31;;;;;;;13.07;5.22;;;;;;;;;;5079541;28;20029;-71
2022/06/07 07:11:09;;;;;;;9.77;4.97;;;;;;;;;;5074419;28;20032;-71
2022/06/07 07:13:36;;;;;;;7.40;4.10;;;;;;;;;;5078199;28;20040;-72
2022/06/07 07:16:03;;;;;;;7.32;4.22;;;;;;;;;;5076137;28;20077;-71
2022/06/07 07:18:28;;;;;;;6.25;3.60;;;;;;;;;;5082537;28;20043;-70
2022/06/07 07:20:54;;;;;;;4.70;2.80;;;;;;;;;;5082534;28;20044;-70
2022/06/07 07:23:19;;;;;;;3.97;2.60;;;;;;;;;;5073224;28;20040;-70
2022/06/07 07:25:45;;;;;;;5.25;1.90;;;;;;;;;;5081767;28;20070;-71
2022/06/07 07:28:11;;;;;;;3.13;1.60;;;;;;;;;;5077257;28;20039;-69
2022/06/07 07:30:37;;;;;;;4.78;1.85;;;;;;;;;;5071298;28;20036;-70
2022/06/07 07:33:02;;;;;;;4.63;1.80;;;;;;;;;;5076871;28;20040;-72
2022/06/07 07:35:29;;;;;;;3.15;1.90;;;;;;;;;;5073451;28;20028;-70
2022/06/07 07:37:55;;;;;;;3.45;2.10;;;;;;;;;;5084943;28;20032;-72
2022/06/07 07:40:20;;;;;;;8.40;1.98;;;;;;;;;;5074754;28;20036;-71
2022/06/07 07:42:46;;;;;;;10.73;2.50;;;;;;;;;;5067966;28;20168;-71
2022/06/07 07:45:15;;;;;;;5.45;2.60;;;;;;;;;;5078968;28;20036;-71
2022/06/07 07:47:40;;;;;;;5.03;2.67;;;;;;;;;;5076712;28;20517;-70
2022/06/07 07:50:06;;;;;;;5.95;3.53;;;;;;;;;;5075410;28;20047;-71
2022/06/07 07:52:31;;;;;;;8.07;2.72;;;;;;;;;;5084887;28;20032;-70
2022/06/07 07:54:57;;;;;;;3.30;2.08;;;;;;;;;;5079466;28;20083;-70
2022/06/07 07:57:22;;;;;;;5.78;2.20;;;;;;;;;;5082138;28;20051;-70
2022/06/07 07:59:48;;;;;;;3.67;2.00;;;;;;;;;;5080682;28;20028;-70
2022/06/07 08:02:20;;;;;;;5.88;2.42;;;;;;;;;;5078030;28;20135;-70
2022/06/07 08:04:46;;;;;;;3.90;2.20;;;;;;;;;;5079403;28;20559;-69
2022/06/07 08:07:11;;;;;;;5.95;2.80;;;;;;;;;;5075596;28;20110;-69
2022/06/07 08:09:37;;;;;;;4.38;2.40;;;;;;;;;;5082586;28;20433;-70
2022/06/07 08:12:05;;;;;;;4.38;2.70;;;;;;;;;;5085323;28;20051;-69
2022/06/07 08:14:33;;;;;;;4.03;2.25;;;;;;;;;;5077819;28;20040;-69
2022/06/07 08:16:58;;;;;;;6.20;2.58;;;;;;;;;;5083240;28;20431;-70
2022/06/07 08:19:24;;;;;;;4.80;2.42;;;;;;;;;;5076675;28;20047;-69
2022/06/07 08:21:50;;;;;;;3.20;2.50;;;;;;;;;;5079095;28;20125;-70
2022/06/07 08:24:16;;;;;;;4.47;2.67;;;;;;;;;;5079928;28;20797;-69
2022/06/07 08:26:42;;;;;;;6.07;2.88;;;;;;;;;;5081551;28;20040;-69
2022/06/07 08:29:08;;;;;;;6.95;3.20;;;;;;;;;;5077223;28;20035;-69
2022/06/07 08:31:34;;;;;;;5.07;2.85;;;;;;;;;;5082546;28;20031;-69
2022/06/07 08:39:37;;;;;;;4.13;3.25;;;;;;;;;;5080261;28;20075;-68
2022/06/07 08:42:21;;;;;;;6.85;3.55;;;;;;;;;;5084175;28;20051;-69
2022/06/07 08:44:58;;;;;;;5.78;3.50;;;;;;;;;;5082789;28;20083;-69
2022/06/07 08:47:31;;;;;;;8.85;3.30;;;;;;;;;;5081891;28;20044;-69
2022/06/07 08:49:59;;;;;;;6.22;3.80;;;;;;;;;;5077131;28;20047;-69
2022/06/07 08:52:32;;;;;;;5.75;2.97;;;;;;;;;;5069256;28;20044;-68
2022/06/07 08:54:58;;;;;;;6.80;3.10;;;;;;;;;;5075796;28;20044;-68
2022/06/07 08:57:24;;;;;;;4.63;2.70;;;;;;;;;;5079446;28;20039;-68
2022/06/07 08:59:54;;;;;;;4.50;2.90;;;;;;;;;;5079959;28;20051;-68
2022/06/07 09:02:36;;;;;;;6.55;3.15;;;;;;;;;;5072513;28;20028;-68
2022/06/07 09:05:02;;;;;;;5.18;3.00;;;;;;;;;;5073777;28;20042;-71
2022/06/07 09:07:27;;;;;;;5.40;3.00;;;;;;;;;;5078028;28;20044;-71
2022/06/07 09:12:57;;;;;;;6.25;3.33;;;;;;;;;;5074556;28;20095;-71
2022/06/07 09:15:26;;;;;;;6.10;3.30;;;;;;;;;;5080492;28;20036;-71
2022/06/07 09:17:57;;;;;;;5.18;3.38;;;;;;;;;;5080817;28;20046;-71
2022/06/07 09:20:31;;;;;;;3.58;2.97;;;;;;;;;;5073287;28;20127;-70
2022/06/07 09:23:04;;;;;;;5.45;3.50;;;;;;;;;;5078713;28;20036;-71
2022/06/07 09:25:34;;;;;;;8.32;3.97;;;;;;;;;;5076469;28;20035;-71
2022/06/07 09:28:01;;;;;;;5.85;3.53;;;;;;;;;;5075470;28;20135;-71
2022/06/07 09:30:37;;;;;;;6.13;3.58;;;;;;;;;;5074286;28;20040;-75
2022/06/07 09:33:10;;;;;;;6.90;3.80;;;;;;;;;;5078914;28;20054;-74
2022/06/07 09:35:39;;;;;;;7.38;4.43;;;;;;;;;;5078935;28;20038;-74
2022/06/07 09:38:06;;;;;;;7.30;3.92;;;;;;;;;;5077038;28;20039;-74
2022/06/07 09:40:37;;;;;;;5.95;4.20;;;;;;;;;;5084096;28;20050;-73
2022/06/07 09:43:11;;;;;;;6.95;4.47;;;;;;;;;;5078620;28;20056;-73
2022/06/07 09:45:47;;;;;;;7.00;4.10;;;;;;;;;;5081558;28;20131;-73
2022/06/07 09:48:20;;;;;;;8.63;5.68;;;;;;;;;;5079010;28;20054;-77
2022/06/07 09:50:56;;;;;;;6.75;4.40;;;;;;;;;;5081366;28;20094;-75
2022/06/07 09:53:22;;;;;;;7.32;4.82;;;;;;;;;;5081338;28;20032;-75
2022/06/07 09:56:17;;;;;;;9.60;5.05;;;;;;;;;;5078048;28;20028;-77
2022/06/07 09:59:12;;;;;;;11.55;5.72;;;;;;;;;;5085229;28;20047;-76
2022/06/07 10:02:15;;;;;;;11.70;7.20;;;;;;;;;;5079387;28;20040;-77
2022/06/07 10:04:54;;;;;;;14.50;8.80;;;;;;;;;;5060868;28;20044;-76
2022/06/07 10:07:30;;;;;;;16.48;9.80;;;;;;;;;;5080703;28;20457;-76
2022/06/07 10:10:11;;;;;;;16.25;10.65;;;;;;;;;;5073719;28;20843;-74
2022/06/07 10:12:48;;;;;;;15.65;10.05;;;;;;;;;;5079710;28;20039;-73
2022/06/07 10:15:23;;;;;;;18.35;10.38;;;;;;;;;;5075190;28;20055;-76
2022/06/07 10:18:01;;;;;;;14.23;8.05;;;;;;;;;;5081156;28;20037;-75
2022/06/07 10:20:40;;;;;;;11.23;7.57;;;;;;;;;;5073644;28;20547;-74
2022/06/07 10:23:23;;;;;;;8.00;5.03;;;;;;;;;;5079483;28;20071;-73
2022/06/07 10:26:06;;;;;;;6.50;4.38;;;;;;;;;;5082013;28;20030;-76
2022/06/07 10:29:07;;;;;;;6.57;4.82;;;;;;;;;;5074703;28;20455;-73
2022/06/07 10:31:42;;;;;;;8.05;4.65;;;;;;;;;;5078493;28;20082;-73
2022/06/07 10:34:29;;;;;;;7.00;4.82;;;;;;;;;;5082728;28;20067;-75
2022/06/07 10:36:54;;;;;;;8.77;5.13;;;;;;;;;;5073792;28;20037;-76
2022/06/07 10:39:40;;;;;;;6.32;5.20;;;;;;;;;;5080932;28;20132;-78
2022/06/07 10:42:24;;;;;;;7.40;4.90;;;;;;;;;;5075690;28;20035;-71
2022/06/07 10:44:59;;;;;;;7.50;5.03;;;;;;;;;;5077774;28;20051;-72
2022/06/07 10:47:35;;;;;;;8.13;5.40;;;;;;;;;;5076161;28;20032;-71
2022/06/07 10:50:06;;;;;;;8.48;5.63;;;;;;;;;;5081736;28;20027;-71
2022/06/07 10:52:32;;;;;;;9.40;5.85;;;;;;;;;;5074990;28;20105;-70
2022/06/07 10:55:21;;;;;;;9.35;5.70;;;;;;;;;;5080469;28;20425;-71
2022/06/07 10:58:13;;;;;;;8.45;5.20;;;;;;;;;;5083455;28;20028;-70
2022/06/07 11:00:50;;;;;;;6.90;5.13;;;;;;;;;;5079813;28;20040;-77
2022/06/07 11:03:31;;;;;;;7.07;5.32;;;;;;;;;;5083977;28;20032;-77
2022/06/07 11:09:20;;;;;;;7.22;5.57;;;;;;;;;;5075755;28;20047;-76
2022/06/07 11:11:48;;;;;;;8.77;5.88;;;;;;;;;;5079976;28;20549;-76
2022/06/07 11:14:33;;;;;;;10.70;6.03;;;;;;;;;;5086122;28;20078;-78
2022/06/07 11:17:25;;;;;;;6.72;5.22;;;;;;;;;;5085255;28;20024;-78
2022/06/07 11:19:52;;;;;;;6.35;5.30;;;;;;;;;;5083601;28;20085;-78
2022/06/07 11:22:22;;;;;;;9.65;5.70;;;;;;;;;;5077843;28;20032;-77
2022/06/07 11:25:20;;;;;;;7.20;5.25;;;;;;;;;;5084068;28;20032;-76
2022/06/07 11:27:58;;;;;;;8.05;5.88;;;;;;;;;;5081447;28;20044;-75
2022/06/07 11:30:36;;;;;;;8.32;6.38;;;;;;;;;;5082094;28;20125;-79
2022/06/07 11:33:02;;;;;;;6.90;5.30;;;;;;;;;;5088295;28;20135;-76
2022/06/07 11:35:53;;;;;;;7.80;5.60;;;;;;;;;;5084879;28;20545;-76
2022/06/07 11:38:19;;;;;;;6.72;5.22;;;;;;;;;;5082969;28;20120;-76
2022/06/07 11:40:47;;;;;;;7.28;5.93;;;;;;;;;;5083618;28;20095;-77
2022/06/07 11:43:56;;;;;;;7.43;5.38;;;;;;;;;;5080879;28;20067;-76
2022/06/07 11:46:26;;;;;;;7.78;5.38;;;;;;;;;;5036993;28;20072;-76
2022/06/07 11:48:53;;;;;;;8.35;5.47;;;;;;;;;;5042157;28;20048;-72
2022/06/07 11:51:21;;;;;;;6.53;5.57;;;;;;;;;;5056567;28;20071;-75
2022/06/07 11:54:01;;;;;;;7.25;5.40;;;;;;;;;;5078047;28;20105;-76
2022/06/07 11:56:43;;;;;;;8.73;5.60;;;;;;;;;;5068060;28;20040;-75
2022/06/07 11:59:21;;;;;;;6.10;4.88;;;;;;;;;;5074669;28;20033;-73
2022/06/07 12:02:07;;;;;;;8.05;5.15;;;;;;;;;;5075528;28;20810;-72
2022/06/07 12:04:43;;;;;;;6.57;5.13;;;;;;;;;;5075856;28;20132;-73
2022/06/07 12:07:22;;;;;;;8.10;5.60;;;;;;;;;;5075734;28;20613;-71
2022/06/07 12:09:51;;;;;;;7.53;5.18;;;;;;;;;;5084461;28;20089;-75
2022/06/07 12:12:31;;;;;;;6.85;5.45;;;;;;;;;;5081121;28;20044;-75
2022/06/07 12:15:18;;;;;;;6.43;5.28;;;;;;;;;;5080834;28;20040;-75
2022/06/07 12:17:55;;;;;;;6.78;5.60;;;;;;;;;;5085074;28;20039;-75
2022/06/07 12:20:28;;;;;;;12.05;6.55;;;;;;;;;;5080441;28;20078;-77
2022/06/07 12:22:57;;;;;;;10.60;6.40;;;;;;;;;;5084121;28;20095;-75
2022/06/07 12:25:23;;;;;;;8.35;5.70;;;;;;;;;;5086317;28;20043;-76
2022/06/07 12:27:52;;;;;;;8.30;5.55;;;;;;;;;;5074210;28;20051;-76
2022/06/07 12:30:30;;;;;;;7.97;5.72;;;;;;;;;;5084484;28;20475;-73
2022/06/07 12:33:10;;;;;;;6.55;5.38;;;;;;;;;;5083019;28;20123;-73
2022/06/07 12:35:36;;;;;;;7.25;5.30;;;;;;;;;;5079912;28;20089;-72
2022/06/07 12:38:01;;;;;;;8.10;5.60;;;;;;;;;;5083919;28;20503;-75
2022/06/07 12:40:45;;;;;;;8.32;5.28;;;;;;;;;;5081546;28;20048;-76
2022/06/07 12:43:22;;;;;;;6.97;5.03;;;;;;;;;;5075612;28;20109;-75
2022/06/07 12:46:20;;;;;;;6.70;4.78;;;;;;;;;;5077866;28;20089;-73
2022/06/07 12:48:47;;;;;;;9.32;4.88;;;;;;;;;;5060259;28;20139;-75
2022/06/07 12:51:24;;;;;;;6.22;4.82;;;;;;;;;;5081316;28;20521;-76
2022/06/07 12:53:58;;;;;;;6.10;4.70;;;;;;;;;;5081639;28;20097;-74
2022/06/07 12:56:25;;;;;;;7.93;5.68;;;;;;;;;;5079747;28;20505;-73
2022/06/07 12:58:52;;;;;;;7.30;5.60;;;;;;;;;;5082036;28;20095;-74
2022/06/07 13:01:40;;;;;;;7.85;5.70;;;;;;;;;;5078876;28;20117;-74
2022/06/07 13:04:20;;;;;;;9.93;5.93;;;;;;;;;;5084155;28;20036;-74
2022/06/07 13:07:23;;;;;;;8.75;6.68;;;;;;;;;;5075102;28;20079;-78
2022/06/07 13:09:57;;;;;;;8.02;5.75;;;;;;;;;;5084863;28;20044;-77
2022/06/07 13:12:40;;;;;;;8.75;6.32;;;;;;;;;;5084189;28;20044;-75
2022/06/07 13:15:20;;;;;;;11.30;5.97;;;;;;;;;;5072043;28;20524;-74
2022/06/07 13:17:54;;;;;;;8.93;6.63;;;;;;;;;;5074889;28;20060;-75
2022/06/07 13:20:39;;;;;;;8.55;5.70;;;;;;;;;;5081555;28;20035;-74
2022/06/07 13:23:38;;;;;;;8.50;5.82;;;;;;;;;;5079211;28;20016;-75
2022/06/07 13:26:15;;;;;;;6.55;5.18;;;;;;;;;;5078690;28;20020;-74
2022/06/07 13:28:42;;;;;;;7.90;4.78;;;;;;;;;;5077932;28;20030;-75
2022/06/07 13:31:48;;;;;;;6.03;4.43;;;;;;;;;;5074390;28;20070;-75
2022/06/07 13:34:19;;;;;;;4.93;3.47;;;;;;;;;;5037058;28;20044;-72
2022/06/07 13:36:49;;;;;;;6.38;4.47;;;;;;;;;;5084161;28;20616;-72
2022/06/07 13:39:24;;;;;;;8.20;5.03;;;;;;;;;;5082551;28;20135;-75
2022/06/07 13:41:53;;;;;;;12.70;4.65;;;;;;;;;;5080356;28;20064;-79
2022/06/07 13:44:23;;;;;;;6.20;4.40;;;;;;;;;;5079530;28;20027;-79
2022/06/07 13:46:56;;;;;;;7.68;4.70;;;;;;;;;;5074750;28;20051;-76
2022/06/07 13:54:58;;;;;;;3.88;2.97;;;;;;;;;;5083604;28;20169;-72
2022/06/07 13:57:24;;;;;;;3.47;2.35;;;;;;;;;;5079206;28;20040;-70
2022/06/07 13:59:50;;;;;;;2.97;2.55;;;;;;;;;;5082996;28;20092;-69
2022/06/07 14:02:16;;;;;;;2.55;2.03;;;;;;;;;;5081710;28;20092;-70
2022/06/07 14:04:42;;;;;;;4.05;2.22;;;;;;;;;;5081695;28;20507;-72
2022/06/07 14:07:12;;;;;;;4.97;2.80;;;;;;;;;;5074798;28;20036;-71
2022/06/07 14:09:38;;;;;;;4.78;2.75;;;;;;;;;;5084010;28;20066;-75
2022/06/07 14:12:04;;;;;;;6.40;3.33;;;;;;;;;;5078497;28;20064;-74
2022/06/07 14:14:30;;;;;;;4.28;2.97;;;;;;;;;;5078492;28;20044;-74
2022/06/07 14:17:01;;;;;;;6.03;3.30;;;;;;;;;;5079362;28;20027;-71
2022/06/07 14:19:30;;;;;;;5.65;3.30;;;;;;;;;;5079948;28;20050;-73
2022/06/07 14:21:58;;;;;;;8.60;5.55;;;;;;;;;;5083154;28;20406;-74
2022/06/07 14:24:24;;;;;;;5.13;3.58;;;;;;;;;;5083012;28;20513;-72
2022/06/07 14:26:51;;;;;;;6.57;3.88;;;;;;;;;;5079017;28;20082;-72
2022/06/07 14:29:18;;;;;;;5.82;3.90;;;;;;;;;;5081192;28;20020;-72
2022/06/07 14:31:44;;;;;;;6.35;4.10;;;;;;;;;;5081372;28;20024;-73
2022/06/07 14:34:19;;;;;;;4.43;2.83;;;;;;;;;;5076598;28;20036;-72
2022/06/07 14:36:45;;;;;;;4.07;2.65;;;;;;;;;;5074393;28;20046;-74
2022/06/07 14:39:21;;;;;;;4.70;2.30;;;;;;;;;;5081910;28;20036;-75
2022/06/07 14:41:47;;;;;;;3.83;2.78;;;;;;;;;;5078383;28;20158;-71
2022/06/07 14:44:13;;;;;;;2.55;2.20;;;;;;;;;;5074303;28;20123;-73
2022/06/07 14:46:41;;;;;;;4.55;2.40;;;;;;;;;;5080823;28;20073;-73
2022/06/07 14:49:20;;;;;;;3.50;2.30;;;;;;;;;;5083358;28;20145;-75
2022/06/07 14:51:48;;;;;;;2.95;2.17;;;;;;;;;;5080960;28;20588;-73
2022/06/07 14:54:37;;;;;;;2.50;1.90;;;;;;;;;;5082320;28;20061;-72
2022/06/07 14:57:12;;;;;;;2.03;1.40;;;;;;;;;;5071428;28;20112;-78
2022/06/07 14:59:37;;;;;;;1.90;1.50;;;;;;;;;;5080704;28;20046;-77
2022/06/07 15:02:11;;;;;;;2.22;1.70;;;;;;;;;;5078972;28;20016;-78
2022/06/07 15:04:50;;;;;;;1.67;1.20;;;;;;;;;;5093764;28;20031;-76
2022/06/07 15:07:24;;;;;;;2.28;1.20;;;;;;;;;;5082026;28;20043;-76
2022/06/07 15:09:51;;;;;;;3.10;1.10;;;;;;;;;;5081814;28;20043;-74
2022/06/07 15:12:17;;;;;;;2.33;1.17;;;;;;;;;;5078913;28;20447;-78
2022/06/07 15:14:44;;;;;;;1.35;1.20;;;;;;;;;;5058305;28;20040;-74
2022/06/07 15:17:14;;;;;;;1.98;1.33;;;;;;;;;;5077842;28;20107;-77
2022/06/07 15:19:39;;;;;;;1.55;1.40;;;;;;;;;;5079608;28;20118;-78
2022/06/07 15:22:10;;;;;;;1.52;1.10;;;;;;;;;;5086160;28;20123;-77
2022/06/07 15:24:36;;;;;;;1.75;1.20;;;;;;;;;;5082208;28;20570;-76
2022/06/07 15:27:03;;;;;;;2.33;1.10;;;;;;;;;;5080866;28;20089;-70
2022/06/07 15:32:31;;;;;;;1.70;1.35;;;;;;;;;;5081527;28;20611;-76